createdAt,value
2019-05-09T00:02:10.713Z,75.50
2019-05-09T00:04:40.234Z,74.10
2019-05-09T00:07:08.714Z,74.40
2019-05-09T00:09:37.385Z,76.20
2019-05-09T00:12:05.657Z,77.80
2019-05-09T00:14:34.293Z,75.80
2019-05-09T00:17:03.697Z,73.90
2019-05-09T00:19:33.333Z,74.60
2019-05-09T00:22:03.299Z,76.30
2019-05-09T00:24:33.193Z,76.00
2019-05-09T00:27:03.809Z,73.80
2019-05-09T00:29:39.480Z,74.40
2019-05-09T00:32:25.424Z,74.70
2019-05-09T00:35:08.952Z,74.90
2019-05-09T00:37:57.246Z,79.40
2019-05-09T00:40:25.138Z,76.00
2019-05-09T00:42:53.417Z,75.60
2019-05-09T00:45:33.303Z,75.90
2019-05-09T00:48:03.505Z,76.00
2019-05-09T00:50:31.315Z,76.40
2019-05-09T00:52:59.379Z,79.40
2019-05-09T00:55:27.120Z,78.40
2019-05-09T00:57:56.349Z,78.60
2019-05-09T01:00:30.111Z,75.20
2019-05-09T01:03:04.508Z,75.60
2019-05-09T01:05:34.152Z,77.60
2019-05-09T01:08:04.371Z,75.70
2019-05-09T01:10:34.187Z,75.50
2019-05-09T01:13:03.599Z,75.10
2019-05-09T01:15:33.420Z,77.20
2019-05-09T01:18:01.210Z,77.70
2019-05-09T01:20:29.017Z,77.90
2019-05-09T01:22:56.880Z,78.00
2019-05-09T01:25:38.861Z,75.00
2019-05-09T01:28:07.903Z,76.00
2019-05-09T01:30:35.865Z,75.90
2019-05-09T01:33:16.468Z,76.70
2019-05-09T01:35:44.935Z,79.30
2019-05-09T01:38:14.910Z,78.20
2019-05-09T01:40:48.632Z,81.20
2019-05-09T01:43:16.639Z,77.30
2019-05-09T01:45:47.023Z,80.80
2019-05-09T01:48:14.411Z,80.00
2019-05-09T01:50:43.146Z,77.20
2019-05-09T01:53:13.417Z,79.20
2019-05-09T01:55:59.439Z,78.10
2019-05-09T01:58:31.068Z,75.20
2019-05-09T02:00:59.626Z,75.40
2019-05-09T02:03:27.563Z,76.20
2019-05-09T02:06:00.134Z,77.60
2019-05-09T02:08:28.066Z,80.90
2019-05-09T02:10:55.902Z,80.60
2019-05-09T02:13:23.721Z,79.20
2019-05-09T02:16:03.375Z,77.50
2019-05-09T02:18:39.304Z,78.10
2019-05-09T02:21:07.247Z,80.50
2019-05-09T02:23:35.089Z,79.70
2019-05-09T02:26:04.345Z,78.00
2019-05-09T02:28:34.134Z,77.80
2019-05-09T02:31:05.313Z,77.80
2019-05-09T02:33:34.638Z,80.80
2019-05-09T02:36:02.402Z,80.70
2019-05-09T02:38:30.266Z,80.70
2019-05-09T02:40:59.620Z,79.20
2019-05-09T02:43:29.123Z,81.80
2019-05-09T02:46:09.442Z,80.50
2019-05-09T02:48:38.701Z,83.10
2019-05-09T02:51:09.258Z,82.30
2019-05-09T02:53:39.542Z,79.90
2019-05-09T02:56:09.146Z,81.70
2019-05-09T02:58:48.335Z,82.80
2019-05-09T03:01:23.127Z,80.60
2019-05-09T03:04:18.699Z,80.50
2019-05-09T03:06:48.878Z,86.50
2019-05-09T03:09:18.767Z,80.90
2019-05-09T03:11:48.309Z,79.30
2019-05-09T03:14:15.227Z,76.40
2019-05-09T03:16:43.112Z,78.60
2019-05-09T03:19:15.297Z,78.40
2019-05-09T03:21:49.342Z,80.10
2019-05-09T03:24:18.472Z,76.90
2019-05-09T03:26:50.545Z,77.40
2019-05-09T03:29:48.952Z,82.00
2019-05-09T03:32:19.071Z,77.30
2019-05-09T03:34:44.766Z,79.50
2019-05-09T03:37:12.651Z,79.50
2019-05-09T03:39:43.390Z,81.20
2019-05-09T03:42:43.412Z,81.10
2019-05-09T03:45:09.908Z,78.10
2019-05-09T03:47:47.824Z,79.90
2019-05-09T03:50:17.895Z,82.10
2019-05-09T03:57:07.685Z,84.10
2019-05-09T05:23:27.634Z,99.90
2019-05-09T05:41:08.170Z,99.90
2019-05-09T05:44:38.376Z,99.90
2019-05-09T05:47:26.637Z,99.90
2019-05-09T05:51:12.856Z,99.90
2019-05-09T06:01:20.017Z,99.90
2019-05-09T06:04:01.948Z,99.90
2019-05-09T06:07:02.880Z,99.90
2019-05-09T06:09:38.818Z,99.90
2019-05-09T06:12:09.147Z,99.90
2019-05-09T06:14:39.364Z,99.90
2019-05-09T06:17:21.158Z,99.90
2019-05-09T06:20:39.309Z,99.90
2019-05-09T06:38:27.963Z,99.90
2019-05-09T06:41:08.853Z,99.90
2019-05-09T06:43:44.692Z,99.50
2019-05-09T06:46:37.837Z,99.90
2019-05-09T06:49:26.797Z,99.90
2019-05-09T06:52:09.893Z,99.90
2019-05-09T06:54:41.205Z,99.70
2019-05-09T06:57:08.103Z,99.90
2019-05-09T06:59:41.872Z,99.90
2019-05-09T07:02:22.481Z,99.90
2019-05-09T07:05:14.490Z,99.90
2019-05-09T07:07:57.365Z,99.90
2019-05-09T07:10:25.253Z,98.60
2019-05-09T07:12:54.368Z,99.90
2019-05-09T07:15:31.556Z,99.90
2019-05-09T07:18:00.842Z,99.90
2019-05-09T07:20:29.263Z,99.90
2019-05-09T07:23:03.203Z,99.90
2019-05-09T07:25:48.788Z,99.90
2019-05-09T07:28:17.986Z,99.90
2019-05-09T07:31:11.538Z,99.90
2019-05-09T07:33:50.592Z,99.90
2019-05-09T07:36:18.866Z,99.90
2019-05-09T07:38:48.244Z,98.60
2019-05-09T07:41:17.834Z,99.00
2019-05-09T07:43:47.857Z,98.40
2019-05-09T07:46:23.935Z,99.90
2019-05-09T07:48:52.425Z,99.90
2019-05-09T07:51:20.203Z,99.90
2019-05-09T07:53:51.615Z,99.90
2019-05-09T07:56:21.284Z,99.90
2019-05-09T07:58:49.057Z,99.90
2019-05-09T08:01:19.089Z,99.90
2019-05-09T08:03:49.044Z,99.20
2019-05-09T08:06:18.438Z,99.90
2019-05-09T08:08:47.816Z,99.90
2019-05-09T08:11:21.806Z,99.90
2019-05-09T08:14:00.186Z,99.50
2019-05-09T08:16:28.044Z,99.70
2019-05-09T08:18:57.836Z,99.90
2019-05-09T08:21:27.490Z,99.90
2019-05-09T08:23:57.658Z,99.90
2019-05-09T08:26:30.095Z,99.90
2019-05-09T08:28:58.348Z,99.90
2019-05-09T08:31:28.081Z,98.10
2019-05-09T08:33:59.009Z,96.80
2019-05-09T08:36:27.996Z,94.60
2019-05-09T08:38:58.382Z,94.30
2019-05-09T08:41:29.207Z,94.50
2019-05-09T08:43:57.721Z,93.70
2019-05-09T08:46:25.740Z,96.20
2019-05-09T08:48:54.193Z,94.90
2019-05-09T08:51:37.233Z,96.50
2019-05-09T08:54:01.407Z,99.90
2019-05-09T08:56:38.732Z,99.90
2019-05-09T08:59:11.711Z,99.90
2019-05-09T09:02:07.831Z,96.80
2019-05-09T09:17:29.427Z,94.00
2019-05-09T09:20:23.540Z,88.00
2019-05-09T09:23:00.023Z,88.60
2019-05-09T09:25:38.815Z,88.50
2019-05-09T09:28:10.216Z,86.10
2019-05-09T09:30:38.899Z,84.90
2019-05-09T09:33:13.744Z,84.40
2019-05-09T09:35:39.810Z,86.70
2019-05-09T09:38:13.470Z,85.00
2019-05-09T09:40:41.783Z,87.10
2019-05-09T09:43:09.949Z,87.00
2019-05-09T09:45:42.191Z,84.70
2019-05-09T09:48:28.834Z,82.00
2019-05-09T09:51:04.072Z,83.30
2019-05-09T09:53:38.235Z,79.90
2019-05-09T09:56:09.323Z,80.00
2019-05-09T09:58:37.943Z,80.40
2019-05-09T10:01:28.748Z,79.30
2019-05-09T10:04:17.946Z,82.70
2019-05-09T10:06:38.579Z,85.70
2019-05-09T10:09:10.306Z,85.30
2019-05-09T10:12:09.135Z,83.00
2019-05-09T10:22:45.609Z,80.10
2019-05-09T10:25:27.610Z,80.20
2019-05-09T10:27:59.376Z,79.20
2019-05-09T10:30:31.345Z,80.10
2019-05-09T10:32:59.545Z,80.30
2019-05-09T10:35:30.575Z,80.60
2019-05-09T12:15:10.008Z,93.20
2019-05-09T12:17:51.017Z,93.00
2019-05-09T12:20:13.454Z,94.00
2019-05-09T12:22:51.957Z,97.90
2019-05-09T12:25:23.639Z,97.90
2019-05-09T12:28:02.595Z,96.20
2019-05-09T12:33:42.692Z,95.30
2019-05-09T12:36:15.711Z,97.30
2019-05-09T12:39:47.962Z,97.90
